CDT,Max TemperatureF,Mean TemperatureF,Min TemperatureF,Max Dew PointF,MeanDew PointF,Min DewpointF,Max Humidity, Mean Humidity, Min Humidity, Max Sea Level PressureIn, Mean Sea Level PressureIn, Min Sea Level PressureIn, Max VisibilityMiles, Mean VisibilityMiles, Min VisibilityMiles, Max Wind SpeedMPH, Mean Wind SpeedMPH, Max Gust SpeedMPH,PrecipitationIn, CloudCover, Events, WindDirDegrees
2012-10-1,81,70,61,65,62,58,93,78,54,29.90,29.87,29.83,10,9,5,24,5,39,0.01,2,Rain-Thunderstorm,285
2012-10-2,81,72,60,60,53,43,93,60,27,29.99,29.94,29.89,10,10,10,13,5,21,0.00,0,,337
2012-10-3,84,70,57,65,57,55,93,66,36,30.01,29.96,29.91,10,10,8,14,3,17,0.00,0,,134
2012-10-4,91,80,69,72,69,66,100,81,44,30.07,30.02,29.97,10,8,2,15,7,22,0.00,4,,121
2012-10-5,88,78,69,70,67,60,96,75,39,30.11,30.02,29.93,10,9,4,15,5,20,0.00,1,,148
2012-10-6,80,70,60,68,64,52,96,76,58,30.09,30.00,29.94,10,10,6,16,6,23,0.00,4,,57
2012-10-7,60,57,54,52,47,43,75,68,60,30.21,30.15,30.09,10,10,10,20,14,30,0.00,8,,32
2012-10-8,69,60,53,53,44,39,70,60,48,30.25,30.17,30.08,10,10,10,10,7,,0.00,6,,60
2012-10-9,81,70,60,68,60,52,90,73,60,30.08,30.02,29.91,10,10,9,15,4,,0.00,6,,174
2012-10-10,89,78,69,72,70,66,94,78,48,30.10,30.02,29.95,10,9,7,17,4,,0.00,5,,123
2012-10-11,88,80,73,76,72,70,97,84,55,30.12,30.07,30.00,10,9,2,16,7,20,0.26,6,Rain,126
2012-10-12,88,78,71,72,71,67,100,84,55,30.16,30.09,30.01,10,8,2,12,6,,0.00,7,,124
2012-10-13,89,80,73,73,72,70,94,80,57,30.07,30.00,29.85,10,10,8,14,9,23,0.00,7,Rain,158
2012-10-14,87,78,71,73,69,58,94,77,48,30.06,29.99,29.91,10,9,2,12,5,,0.07,5,Rain,116
2012-10-15,78,72,66,60,54,50,79,55,37,30.10,30.03,29.97,10,10,10,9,4,,0.00,0,,48
2012-10-16,75,70,64,70,63,55,94,78,63,29.96,29.86,29.77,10,9,5,13,3,,0.00,5,Rain,93
2012-10-17,90,77,64,70,67,64,100,85,43,29.79,29.72,29.60,10,6,0,10,5,,0.00,5,Fog,181
2012-10-18,81,72,64,56,46,41,49,39,28,29.97,29.84,29.71,10,10,10,17,11,32,0.00,0,,44
2012-10-19,82,67,52,48,40,29,69,40,14,30.04,29.97,29.91,10,10,10,10,5,,0.00,0,,61
2012-10-20,88,72,57,72,63,48,90,71,51,29.94,29.87,29.76,10,10,7,13,3,,0.00,5,,166
2012-10-21,90,80,71,72,69,63,100,78,42,29.95,29.87,29.80,10,8,3,18,9,25,0.00,3,,152
2012-10-22,89,80,71,72,70,63,97,78,42,29.98,29.91,29.84,10,10,9,18,11,28,0.00,4,,148
2012-10-23,87,78,69,70,68,66,100,79,49,29.97,29.91,29.85,10,9,6,13,5,20,0.00,6,,140
2012-10-24,87,76,66,68,65,59,100,77,40,29.98,29.91,29.82,10,9,6,14,4,20,0.00,2,,146
2012-10-25,87,76,66,70,67,63,100,81,44,29.91,29.85,29.79,10,8,2,13,3,16,0.00,4,,135
2012-10-26,66,60,48,57,47,37,100,74,51,30.24,30.12,29.96,10,7,0,18,12,26,1.80,8,Fog-Rain-Thunderstorm,14
2012-10-27,63,56,48,36,32,29,50,42,28,30.30,30.22,30.13,10,10,10,15,9,22,0.00,6,,14
2012-10-28,68,60,48,40,32,28,66,38,24,30.28,30.21,30.15,10,10,10,12,7,17,0.00,3,,51
2012-10-29,70,56,43,46,37,32,90,53,27,30.30,30.21,30.14,10,10,10,8,3,,0.00,0,,66
2012-10-30,77,61,45,55,49,42,90,71,42,30.14,30.05,29.96,10,10,10,9,1,,0.00,0,,172
2012-10-31,82,68,55,65,59,54,94,75,42,30.08,30.01,29.95,10,10,10,6,1,,0.00,2,,33